sensor_id;sensor_type;location;lat;lon;timestamp;P1;durP1;ratioP1;P2;durP2;ratioP2
13204;SDS011;6667;52.634;9.226;2023-05-07T00:01:58;16.70;;;9.77;;
13204;SDS011;6667;52.634;9.226;2023-05-07T00:04:25;14.67;;;10.00;;
13204;SDS011;6667;52.634;9.226;2023-05-07T00:07:05;15.73;;;9.73;;
13204;SDS011;6667;52.634;9.226;2023-05-07T00:09:32;13.67;;;9.13;;
13204;SDS011;6667;52.634;9.226;2023-05-07T00:12:02;12.57;;;9.47;;
13204;SDS011;6667;52.634;9.226;2023-05-07T00:14:29;11.53;;;8.90;;
13204;SDS011;6667;52.634;9.226;2023-05-07T00:16:57;12.53;;;9.23;;
13204;SDS011;6667;52.634;9.226;2023-05-07T00:19:26;11.70;;;9.30;;
13204;SDS011;6667;52.634;9.226;2023-05-07T00:21:53;13.37;;;9.53;;
13204;SDS011;6667;52.634;9.226;2023-05-07T00:24:22;11.97;;;9.20;;
13204;SDS011;6667;52.634;9.226;2023-05-07T00:26:49;12.40;;;9.53;;
13204;SDS011;6667;52.634;9.226;2023-05-07T00:29:17;12.00;;;9.60;;
13204;SDS011;6667;52.634;9.226;2023-05-07T00:31:45;13.33;;;9.77;;
13204;SDS011;6667;52.634;9.226;2023-05-07T00:34:12;14.43;;;9.87;;
13204;SDS011;6667;52.634;9.226;2023-05-07T00:36:39;16.77;;;10.83;;
13204;SDS011;6667;52.634;9.226;2023-05-07T00:42:20;10.33;;;9.20;;
13204;SDS011;6667;52.634;9.226;2023-05-07T00:44:49;12.53;;;9.60;;
13204;SDS011;6667;52.634;9.226;2023-05-07T00:47:36;12.90;;;9.90;;
13204;SDS011;6667;52.634;9.226;2023-05-07T00:52:53;14.00;;;9.50;;
13204;SDS011;6667;52.634;9.226;2023-05-07T00:55:23;12.33;;;9.10;;
13204;SDS011;6667;52.634;9.226;2023-05-07T00:57:53;12.13;;;9.10;;
13204;SDS011;6667;52.634;9.226;2023-05-07T01:00:22;12.30;;;8.80;;
13204;SDS011;6667;52.634;9.226;2023-05-07T01:02:50;12.70;;;9.87;;
13204;SDS011;6667;52.634;9.226;2023-05-07T01:05:41;12.20;;;9.50;;
13204;SDS011;6667;52.634;9.226;2023-05-07T01:08:19;12.97;;;9.63;;
13204;SDS011;6667;52.634;9.226;2023-05-07T01:11:25;14.63;;;10.80;;
13204;SDS011;6667;52.634;9.226;2023-05-07T01:13:53;15.20;;;10.93;;
13204;SDS011;6667;52.634;9.226;2023-05-07T01:16:21;15.90;;;11.33;;
13204;SDS011;6667;52.634;9.226;2023-05-07T01:19:06;14.97;;;10.13;;
13204;SDS011;6667;52.634;9.226;2023-05-07T01:21:49;14.13;;;10.27;;
13204;SDS011;6667;52.634;9.226;2023-05-07T01:28:18;12.83;;;10.40;;
13204;SDS011;6667;52.634;9.226;2023-05-07T01:30:49;14.33;;;10.47;;
13204;SDS011;6667;52.634;9.226;2023-05-07T01:33:21;13.93;;;10.57;;
13204;SDS011;6667;52.634;9.226;2023-05-07T01:35:52;15.00;;;10.27;;
13204;SDS011;6667;52.634;9.226;2023-05-07T01:38:23;13.93;;;9.63;;
13204;SDS011;6667;52.634;9.226;2023-05-07T01:40:51;12.87;;;9.80;;
13204;SDS011;6667;52.634;9.226;2023-05-07T01:43:20;13.77;;;10.23;;
13204;SDS011;6667;52.634;9.226;2023-05-07T01:45:47;13.97;;;9.87;;
13204;SDS011;6667;52.634;9.226;2023-05-07T01:48:15;16.27;;;11.03;;
13204;SDS011;6667;52.634;9.226;2023-05-07T01:50:43;13.57;;;10.10;;
13204;SDS011;6667;52.634;9.226;2023-05-07T01:53:14;16.13;;;10.80;;
13204;SDS011;6667;52.634;9.226;2023-05-07T01:55:42;12.23;;;9.60;;
13204;SDS011;6667;52.634;9.226;2023-05-07T01:58:09;14.47;;;9.80;;
13204;SDS011;6667;52.634;9.226;2023-05-07T02:00:38;15.20;;;10.03;;
13204;SDS011;6667;52.634;9.226;2023-05-07T02:03:06;15.43;;;10.20;;
13204;SDS011;6667;52.634;9.226;2023-05-07T02:05:33;16.03;;;10.70;;
13204;SDS011;6667;52.634;9.226;2023-05-07T02:08:00;13.57;;;9.60;;
13204;SDS011;6667;52.634;9.226;2023-05-07T02:10:33;15.30;;;10.40;;
13204;SDS011;6667;52.634;9.226;2023-05-07T02:13:01;15.87;;;10.27;;
13204;SDS011;6667;52.634;9.226;2023-05-07T02:15:28;13.67;;;9.97;;
13204;SDS011;6667;52.634;9.226;2023-05-07T02:17:59;16.33;;;10.20;;
13204;SDS011;6667;52.634;9.226;2023-05-07T02:20:31;15.67;;;10.33;;
13204;SDS011;6667;52.634;9.226;2023-05-07T02:23:12;16.87;;;10.80;;
13204;SDS011;6667;52.634;9.226;2023-05-07T02:25:43;15.40;;;10.40;;
13204;SDS011;6667;52.634;9.226;2023-05-07T02:28:20;15.00;;;10.60;;
13204;SDS011;6667;52.634;9.226;2023-05-07T02:30:47;15.00;;;10.93;;
13204;SDS011;6667;52.634;9.226;2023-05-07T02:33:15;13.17;;;9.70;;
13204;SDS011;6667;52.634;9.226;2023-05-07T02:35:42;14.63;;;11.00;;
13204;SDS011;6667;52.634;9.226;2023-05-07T02:38:09;14.60;;;10.70;;
13204;SDS011;6667;52.634;9.226;2023-05-07T02:40:37;17.37;;;10.77;;
13204;SDS011;6667;52.634;9.226;2023-05-07T02:43:04;16.77;;;11.20;;
13204;SDS011;6667;52.634;9.226;2023-05-07T02:45:41;17.00;;;11.30;;
13204;SDS011;6667;52.634;9.226;2023-05-07T02:48:30;16.17;;;9.63;;
13204;SDS011;6667;52.634;9.226;2023-05-07T02:50:57;15.57;;;10.50;;
13204;SDS011;6667;52.634;9.226;2023-05-07T02:53:25;14.00;;;9.90;;
13204;SDS011;6667;52.634;9.226;2023-05-07T02:55:52;14.70;;;9.77;;
13204;SDS011;6667;52.634;9.226;2023-05-07T02:58:19;17.70;;;11.07;;
13204;SDS011;6667;52.634;9.226;2023-05-07T03:00:47;15.93;;;10.97;;
13204;SDS011;6667;52.634;9.226;2023-05-07T03:03:14;18.93;;;12.20;;
13204;SDS011;6667;52.634;9.226;2023-05-07T03:05:43;17.00;;;11.67;;
13204;SDS011;6667;52.634;9.226;2023-05-07T03:08:31;19.27;;;11.60;;
13204;SDS011;6667;52.634;9.226;2023-05-07T03:11:05;17.47;;;11.33;;
13204;SDS011;6667;52.634;9.226;2023-05-07T03:13:32;19.63;;;12.73;;
13204;SDS011;6667;52.634;9.226;2023-05-07T03:15:59;19.97;;;12.70;;
13204;SDS011;6667;52.634;9.226;2023-05-07T03:18:32;19.70;;;12.67;;
13204;SDS011;6667;52.634;9.226;2023-05-07T03:21:01;17.67;;;11.80;;
13204;SDS011;6667;52.634;9.226;2023-05-07T03:23:28;17.47;;;11.63;;
13204;SDS011;6667;52.634;9.226;2023-05-07T03:25:55;18.63;;;13.30;;
13204;SDS011;6667;52.634;9.226;2023-05-07T03:31:46;18.13;;;12.83;;
13204;SDS011;6667;52.634;9.226;2023-05-07T03:34:13;20.33;;;13.60;;
13204;SDS011;6667;52.634;9.226;2023-05-07T03:36:43;20.77;;;13.60;;
13204;SDS011;6667;52.634;9.226;2023-05-07T03:39:10;21.30;;;12.50;;
13204;SDS011;6667;52.634;9.226;2023-05-07T03:41:37;20.43;;;13.33;;
13204;SDS011;6667;52.634;9.226;2023-05-07T03:44:04;18.87;;;12.57;;
13204;SDS011;6667;52.634;9.226;2023-05-07T03:46:32;17.40;;;11.83;;
13204;SDS011;6667;52.634;9.226;2023-05-07T03:49:00;17.50;;;11.50;;
13204;SDS011;6667;52.634;9.226;2023-05-07T03:51:27;18.60;;;11.70;;
13204;SDS011;6667;52.634;9.226;2023-05-07T03:53:55;16.93;;;11.67;;
13204;SDS011;6667;52.634;9.226;2023-05-07T03:56:23;15.23;;;10.23;;
13204;SDS011;6667;52.634;9.226;2023-05-07T03:58:51;17.97;;;11.83;;
13204;SDS011;6667;52.634;9.226;2023-05-07T04:01:18;13.93;;;10.23;;
13204;SDS011;6667;52.634;9.226;2023-05-07T04:03:46;16.27;;;10.20;;
13204;SDS011;6667;52.634;9.226;2023-05-07T04:06:13;15.30;;;9.93;;
13204;SDS011;6667;52.634;9.226;2023-05-07T04:08:48;12.77;;;9.23;;
13204;SDS011;6667;52.634;9.226;2023-05-07T04:11:22;12.17;;;9.47;;
13204;SDS011;6667;52.634;9.226;2023-05-07T04:13:50;15.17;;;9.60;;
13204;SDS011;6667;52.634;9.226;2023-05-07T04:16:17;12.73;;;9.53;;
13204;SDS011;6667;52.634;9.226;2023-05-07T04:18:44;15.63;;;9.67;;
13204;SDS011;6667;52.634;9.226;2023-05-07T04:21:14;14.00;;;9.63;;
13204;SDS011;6667;52.634;9.226;2023-05-07T04:23:41;12.40;;;9.27;;
13204;SDS011;6667;52.634;9.226;2023-05-07T04:26:08;14.10;;;9.90;;
13204;SDS011;6667;52.634;9.226;2023-05-07T04:28:37;11.93;;;8.77;;
13204;SDS011;6667;52.634;9.226;2023-05-07T04:31:05;11.13;;;8.60;;
13204;SDS011;6667;52.634;9.226;2023-05-07T04:33:32;10.60;;;8.13;;
13204;SDS011;6667;52.634;9.226;2023-05-07T04:36:00;13.40;;;8.50;;
13204;SDS011;6667;52.634;9.226;2023-05-07T04:38:28;11.43;;;8.80;;
13204;SDS011;6667;52.634;9.226;2023-05-07T04:40:55;11.77;;;8.73;;
13204;SDS011;6667;52.634;9.226;2023-05-07T04:43:22;10.77;;;8.77;;
13204;SDS011;6667;52.634;9.226;2023-05-07T04:45:51;10.43;;;8.20;;
13204;SDS011;6667;52.634;9.226;2023-05-07T04:48:18;11.67;;;8.17;;
13204;SDS011;6667;52.634;9.226;2023-05-07T04:50:46;12.80;;;7.83;;
13204;SDS011;6667;52.634;9.226;2023-05-07T04:53:14;11.33;;;8.40;;
13204;SDS011;6667;52.634;9.226;2023-05-07T04:55:40;11.30;;;8.27;;
13204;SDS011;6667;52.634;9.226;2023-05-07T04:58:07;8.57;;;7.33;;
13204;SDS011;6667;52.634;9.226;2023-05-07T05:00:34;11.40;;;7.03;;
13204;SDS011;6667;52.634;9.226;2023-05-07T05:03:02;9.40;;;7.67;;
13204;SDS011;6667;52.634;9.226;2023-05-07T05:05:30;12.63;;;7.90;;
13204;SDS011;6667;52.634;9.226;2023-05-07T05:07:56;13.30;;;8.97;;
13204;SDS011;6667;52.634;9.226;2023-05-07T05:10:23;11.50;;;7.53;;
13204;SDS011;6667;52.634;9.226;2023-05-07T05:12:50;12.60;;;7.87;;
13204;SDS011;6667;52.634;9.226;2023-05-07T05:15:17;9.30;;;7.90;;
13204;SDS011;6667;52.634;9.226;2023-05-07T05:17:43;9.37;;;7.80;;
13204;SDS011;6667;52.634;9.226;2023-05-07T05:20:12;10.10;;;7.30;;
13204;SDS011;6667;52.634;9.226;2023-05-07T05:22:39;10.83;;;7.90;;
13204;SDS011;6667;52.634;9.226;2023-05-07T05:25:06;9.90;;;6.87;;
13204;SDS011;6667;52.634;9.226;2023-05-07T05:27:34;12.30;;;7.67;;
13204;SDS011;6667;52.634;9.226;2023-05-07T05:30:01;11.27;;;6.87;;
13204;SDS011;6667;52.634;9.226;2023-05-07T05:32:28;8.83;;;7.00;;
13204;SDS011;6667;52.634;9.226;2023-05-07T05:34:54;12.00;;;6.87;;
13204;SDS011;6667;52.634;9.226;2023-05-07T05:37:23;11.67;;;7.80;;
13204;SDS011;6667;52.634;9.226;2023-05-07T05:39:49;9.30;;;6.63;;
13204;SDS011;6667;52.634;9.226;2023-05-07T05:42:16;9.33;;;6.47;;
13204;SDS011;6667;52.634;9.226;2023-05-07T05:44:43;12.80;;;7.90;;
13204;SDS011;6667;52.634;9.226;2023-05-07T05:47:10;11.87;;;7.60;;
13204;SDS011;6667;52.634;9.226;2023-05-07T05:49:36;9.67;;;7.20;;
13204;SDS011;6667;52.634;9.226;2023-05-07T05:52:03;9.60;;;6.60;;
13204;SDS011;6667;52.634;9.226;2023-05-07T05:54:31;9.30;;;7.10;;
13204;SDS011;6667;52.634;9.226;2023-05-07T05:56:58;10.13;;;6.87;;
13204;SDS011;6667;52.634;9.226;2023-05-07T05:59:25;12.60;;;8.00;;
13204;SDS011;6667;52.634;9.226;2023-05-07T06:01:52;8.97;;;7.07;;
13204;SDS011;6667;52.634;9.226;2023-05-07T06:04:19;8.90;;;6.90;;
13204;SDS011;6667;52.634;9.226;2023-05-07T06:06:46;9.33;;;6.80;;
13204;SDS011;6667;52.634;9.226;2023-05-07T06:09:12;9.17;;;6.90;;
13204;SDS011;6667;52.634;9.226;2023-05-07T06:11:40;8.50;;;6.57;;
13204;SDS011;6667;52.634;9.226;2023-05-07T06:14:07;8.93;;;7.13;;
13204;SDS011;6667;52.634;9.226;2023-05-07T06:16:34;9.27;;;6.90;;
13204;SDS011;6667;52.634;9.226;2023-05-07T06:19:02;9.37;;;7.27;;
13204;SDS011;6667;52.634;9.226;2023-05-07T06:21:29;10.60;;;7.10;;
13204;SDS011;6667;52.634;9.226;2023-05-07T06:23:56;10.73;;;7.97;;
13204;SDS011;6667;52.634;9.226;2023-05-07T06:26:23;9.50;;;7.60;;
13204;SDS011;6667;52.634;9.226;2023-05-07T06:28:51;10.90;;;8.10;;
13204;SDS011;6667;52.634;9.226;2023-05-07T06:31:19;9.97;;;7.00;;
13204;SDS011;6667;52.634;9.226;2023-05-07T06:33:46;10.47;;;7.60;;
13204;SDS011;6667;52.634;9.226;2023-05-07T06:36:14;9.83;;;7.40;;
13204;SDS011;6667;52.634;9.226;2023-05-07T06:38:41;11.30;;;7.13;;
13204;SDS011;6667;52.634;9.226;2023-05-07T06:41:07;10.63;;;7.40;;
13204;SDS011;6667;52.634;9.226;2023-05-07T06:43:35;10.97;;;7.67;;
13204;SDS011;6667;52.634;9.226;2023-05-07T06:46:03;9.57;;;7.37;;
13204;SDS011;6667;52.634;9.226;2023-05-07T06:48:30;8.80;;;7.03;;
13204;SDS011;6667;52.634;9.226;2023-05-07T06:50:56;11.33;;;8.60;;
13204;SDS011;6667;52.634;9.226;2023-05-07T06:53:23;8.50;;;6.20;;
13204;SDS011;6667;52.634;9.226;2023-05-07T06:55:50;10.53;;;6.97;;
13204;SDS011;6667;52.634;9.226;2023-05-07T06:58:17;11.17;;;7.47;;
13204;SDS011;6667;52.634;9.226;2023-05-07T07:00:44;9.60;;;6.80;;
13204;SDS011;6667;52.634;9.226;2023-05-07T07:03:12;10.23;;;7.17;;
13204;SDS011;6667;52.634;9.226;2023-05-07T07:05:40;7.73;;;6.63;;
13204;SDS011;6667;52.634;9.226;2023-05-07T07:08:06;10.87;;;7.43;;
13204;SDS011;6667;52.634;9.226;2023-05-07T07:10:33;9.00;;;6.80;;
13204;SDS011;6667;52.634;9.226;2023-05-07T07:13:00;8.50;;;6.83;;
13204;SDS011;6667;52.634;9.226;2023-05-07T07:15:27;8.70;;;6.37;;
13204;SDS011;6667;52.634;9.226;2023-05-07T07:17:53;7.80;;;6.47;;
13204;SDS011;6667;52.634;9.226;2023-05-07T07:20:22;8.27;;;6.50;;
13204;SDS011;6667;52.634;9.226;2023-05-07T07:22:48;9.47;;;6.17;;
13204;SDS011;6667;52.634;9.226;2023-05-07T07:25:15;6.47;;;5.60;;
13204;SDS011;6667;52.634;9.226;2023-05-07T07:27:42;5.97;;;5.37;;
13204;SDS011;6667;52.634;9.226;2023-05-07T07:30:09;6.73;;;6.03;;
13204;SDS011;6667;52.634;9.226;2023-05-07T07:32:36;7.67;;;6.43;;
13204;SDS011;6667;52.634;9.226;2023-05-07T07:35:03;7.37;;;6.33;;
13204;SDS011;6667;52.634;9.226;2023-05-07T07:37:32;7.87;;;6.27;;
13204;SDS011;6667;52.634;9.226;2023-05-07T07:39:59;7.13;;;5.10;;
13204;SDS011;6667;52.634;9.226;2023-05-07T07:42:26;8.90;;;6.23;;
13204;SDS011;6667;52.634;9.226;2023-05-07T07:44:54;7.00;;;5.20;;
13204;SDS011;6667;52.634;9.226;2023-05-07T07:47:22;7.50;;;6.20;;
13204;SDS011;6667;52.634;9.226;2023-05-07T07:49:48;6.93;;;5.40;;
13204;SDS011;6667;52.634;9.226;2023-05-07T07:52:15;7.63;;;6.13;;
13204;SDS011;6667;52.634;9.226;2023-05-07T07:54:43;6.53;;;5.77;;
13204;SDS011;6667;52.634;9.226;2023-05-07T07:57:10;7.40;;;6.20;;
13204;SDS011;6667;52.634;9.226;2023-05-07T07:59:37;7.40;;;5.80;;
13204;SDS011;6667;52.634;9.226;2023-05-07T08:02:04;7.43;;;5.20;;
13204;SDS011;6667;52.634;9.226;2023-05-07T08:04:31;7.80;;;5.73;;
13204;SDS011;6667;52.634;9.226;2023-05-07T08:06:59;6.37;;;5.57;;
13204;SDS011;6667;52.634;9.226;2023-05-07T08:09:26;8.23;;;5.50;;
13204;SDS011;6667;52.634;9.226;2023-05-07T08:11:54;7.43;;;6.00;;
13204;SDS011;6667;52.634;9.226;2023-05-07T08:14:21;6.33;;;5.53;;
13204;SDS011;6667;52.634;9.226;2023-05-07T08:16:47;7.73;;;6.57;;
13204;SDS011;6667;52.634;9.226;2023-05-07T08:19:14;7.70;;;5.83;;
13204;SDS011;6667;52.634;9.226;2023-05-07T08:21:41;6.37;;;5.20;;
13204;SDS011;6667;52.634;9.226;2023-05-07T08:24:08;7.93;;;6.10;;
13204;SDS011;6667;52.634;9.226;2023-05-07T08:26:34;6.47;;;5.60;;
13204;SDS011;6667;52.634;9.226;2023-05-07T08:29:05;6.57;;;5.77;;
13204;SDS011;6667;52.634;9.226;2023-05-07T08:31:32;6.23;;;5.53;;
13204;SDS011;6667;52.634;9.226;2023-05-07T08:33:58;6.67;;;5.80;;
13204;SDS011;6667;52.634;9.226;2023-05-07T08:36:25;7.03;;;5.93;;
13204;SDS011;6667;52.634;9.226;2023-05-07T08:38:53;7.40;;;5.73;;
13204;SDS011;6667;52.634;9.226;2023-05-07T08:41:20;7.23;;;5.53;;
13204;SDS011;6667;52.634;9.226;2023-05-07T08:43:47;6.67;;;5.80;;
13204;SDS011;6667;52.634;9.226;2023-05-07T08:46:19;6.20;;;5.60;;
13204;SDS011;6667;52.634;9.226;2023-05-07T08:51:12;6.70;;;6.03;;
13204;SDS011;6667;52.634;9.226;2023-05-07T08:53:40;7.83;;;7.00;;
13204;SDS011;6667;52.634;9.226;2023-05-07T08:56:08;8.17;;;7.30;;
13204;SDS011;6667;52.634;9.226;2023-05-07T08:58:35;8.10;;;6.97;;
13204;SDS011;6667;52.634;9.226;2023-05-07T09:01:03;7.73;;;6.93;;
13204;SDS011;6667;52.634;9.226;2023-05-07T09:03:35;7.43;;;6.67;;
13204;SDS011;6667;52.634;9.226;2023-05-07T09:06:04;8.20;;;7.37;;
13204;SDS011;6667;52.634;9.226;2023-05-07T09:08:32;8.10;;;7.07;;
13204;SDS011;6667;52.634;9.226;2023-05-07T09:10:59;8.13;;;7.13;;
13204;SDS011;6667;52.634;9.226;2023-05-07T09:13:26;9.20;;;7.50;;
13204;SDS011;6667;52.634;9.226;2023-05-07T09:15:54;8.07;;;6.87;;
13204;SDS011;6667;52.634;9.226;2023-05-07T09:18:23;7.77;;;6.70;;
13204;SDS011;6667;52.634;9.226;2023-05-07T09:20:51;8.80;;;6.90;;
13204;SDS011;6667;52.634;9.226;2023-05-07T09:23:18;9.10;;;7.20;;
13204;SDS011;6667;52.634;9.226;2023-05-07T09:25:46;9.83;;;7.50;;
13204;SDS011;6667;52.634;9.226;2023-05-07T09:28:13;10.63;;;6.87;;
13204;SDS011;6667;52.634;9.226;2023-05-07T09:30:39;8.10;;;6.97;;
13204;SDS011;6667;52.634;9.226;2023-05-07T09:33:06;8.17;;;6.97;;
13204;SDS011;6667;52.634;9.226;2023-05-07T09:35:33;7.40;;;6.43;;
13204;SDS011;6667;52.634;9.226;2023-05-07T09:38:01;8.80;;;6.40;;
13204;SDS011;6667;52.634;9.226;2023-05-07T09:40:29;7.20;;;6.37;;
13204;SDS011;6667;52.634;9.226;2023-05-07T09:43:01;7.50;;;6.73;;
13204;SDS011;6667;52.634;9.226;2023-05-07T09:45:35;7.40;;;6.40;;
13204;SDS011;6667;52.634;9.226;2023-05-07T09:48:03;10.80;;;6.37;;
13204;SDS011;6667;52.634;9.226;2023-05-07T09:50:33;7.20;;;6.23;;
13204;SDS011;6667;52.634;9.226;2023-05-07T09:53:04;7.80;;;6.40;;
13204;SDS011;6667;52.634;9.226;2023-05-07T09:55:31;7.77;;;6.07;;
13204;SDS011;6667;52.634;9.226;2023-05-07T09:57:58;6.73;;;5.83;;
13204;SDS011;6667;52.634;9.226;2023-05-07T10:00:27;6.77;;;5.57;;
13204;SDS011;6667;52.634;9.226;2023-05-07T10:02:55;7.90;;;6.10;;
13204;SDS011;6667;52.634;9.226;2023-05-07T10:05:23;6.83;;;6.00;;
13204;SDS011;6667;52.634;9.226;2023-05-07T10:07:51;7.70;;;6.03;;
13204;SDS011;6667;52.634;9.226;2023-05-07T10:10:20;13.87;;;6.33;;
13204;SDS011;6667;52.634;9.226;2023-05-07T10:12:48;10.60;;;6.60;;
13204;SDS011;6667;52.634;9.226;2023-05-07T10:15:15;7.37;;;5.90;;
13204;SDS011;6667;52.634;9.226;2023-05-07T10:17:43;6.70;;;5.63;;
13204;SDS011;6667;52.634;9.226;2023-05-07T10:20:10;9.00;;;6.40;;
13204;SDS011;6667;52.634;9.226;2023-05-07T10:22:38;6.20;;;5.50;;
13204;SDS011;6667;52.634;9.226;2023-05-07T10:25:09;8.57;;;5.90;;
13204;SDS011;6667;52.634;9.226;2023-05-07T10:27:44;7.47;;;5.77;;
13204;SDS011;6667;52.634;9.226;2023-05-07T10:30:15;6.47;;;5.77;;
13204;SDS011;6667;52.634;9.226;2023-05-07T10:32:50;8.07;;;5.87;;
13204;SDS011;6667;52.634;9.226;2023-05-07T10:35:21;8.17;;;5.70;;
13204;SDS011;6667;52.634;9.226;2023-05-07T10:37:50;6.87;;;5.87;;
13204;SDS011;6667;52.634;9.226;2023-05-07T10:40:17;7.33;;;5.63;;
13204;SDS011;6667;52.634;9.226;2023-05-07T10:42:57;6.87;;;5.97;;
13204;SDS011;6667;52.634;9.226;2023-05-07T10:45:25;6.33;;;5.73;;
13204;SDS011;6667;52.634;9.226;2023-05-07T10:48:05;6.60;;;5.63;;
13204;SDS011;6667;52.634;9.226;2023-05-07T10:50:33;8.30;;;6.30;;
13204;SDS011;6667;52.634;9.226;2023-05-07T10:53:20;7.77;;;6.07;;
13204;SDS011;6667;52.634;9.226;2023-05-07T10:55:49;6.90;;;5.93;;
13204;SDS011;6667;52.634;9.226;2023-05-07T10:58:24;7.13;;;5.97;;
13204;SDS011;6667;52.634;9.226;2023-05-07T11:00:55;6.00;;;5.10;;
13204;SDS011;6667;52.634;9.226;2023-05-07T11:03:23;6.63;;;5.70;;
13204;SDS011;6667;52.634;9.226;2023-05-07T11:06:08;5.97;;;5.23;;
13204;SDS011;6667;52.634;9.226;2023-05-07T11:14:13;6.90;;;6.20;;
13204;SDS011;6667;52.634;9.226;2023-05-07T11:16:40;5.97;;;5.40;;
13204;SDS011;6667;52.634;9.226;2023-05-07T11:19:08;5.83;;;5.33;;
13204;SDS011;6667;52.634;9.226;2023-05-07T11:21:35;6.37;;;5.77;;
13204;SDS011;6667;52.634;9.226;2023-05-07T11:24:03;7.00;;;6.30;;
13204;SDS011;6667;52.634;9.226;2023-05-07T11:26:40;6.68;;;5.75;;
13204;SDS011;6667;52.634;9.226;2023-05-07T11:29:14;8.47;;;6.33;;
13204;SDS011;6667;52.634;9.226;2023-05-07T11:31:42;6.80;;;6.10;;
13204;SDS011;6667;52.634;9.226;2023-05-07T11:34:09;7.70;;;6.47;;
13204;SDS011;6667;52.634;9.226;2023-05-07T11:36:40;6.83;;;6.13;;
13204;SDS011;6667;52.634;9.226;2023-05-07T11:39:26;8.23;;;6.57;;
13204;SDS011;6667;52.634;9.226;2023-05-07T11:41:53;8.13;;;7.32;;
13204;SDS011;6667;52.634;9.226;2023-05-07T11:44:22;8.07;;;7.13;;
13204;SDS011;6667;52.634;9.226;2023-05-07T11:46:48;8.98;;;7.15;;
13204;SDS011;6667;52.634;9.226;2023-05-07T11:49:16;8.18;;;7.18;;
13204;SDS011;6667;52.634;9.226;2023-05-07T11:51:43;8.85;;;7.55;;
13204;SDS011;6667;52.634;9.226;2023-05-07T11:54:11;7.70;;;6.90;;
13204;SDS011;6667;52.634;9.226;2023-05-07T11:56:42;7.32;;;6.53;;
13204;SDS011;6667;52.634;9.226;2023-05-07T11:59:09;8.07;;;6.33;;
13204;SDS011;6667;52.634;9.226;2023-05-07T12:01:37;7.38;;;6.65;;
13204;SDS011;6667;52.634;9.226;2023-05-07T12:04:04;7.50;;;6.72;;
13204;SDS011;6667;52.634;9.226;2023-05-07T12:06:35;7.55;;;6.25;;
13204;SDS011;6667;52.634;9.226;2023-05-07T12:09:03;6.63;;;5.82;;
13204;SDS011;6667;52.634;9.226;2023-05-07T12:11:32;6.90;;;6.20;;
13204;SDS011;6667;52.634;9.226;2023-05-07T12:13:58;7.05;;;5.68;;
13204;SDS011;6667;52.634;9.226;2023-05-07T12:16:25;6.53;;;5.85;;
13204;SDS011;6667;52.634;9.226;2023-05-07T12:18:54;6.95;;;6.22;;
13204;SDS011;6667;52.634;9.226;2023-05-07T12:21:21;6.45;;;5.82;;
13204;SDS011;6667;52.634;9.226;2023-05-07T12:23:49;6.97;;;5.55;;
13204;SDS011;6667;52.634;9.226;2023-05-07T12:26:16;6.93;;;6.22;;
13204;SDS011;6667;52.634;9.226;2023-05-07T12:28:45;7.07;;;5.70;;
13204;SDS011;6667;52.634;9.226;2023-05-07T12:31:13;6.38;;;5.78;;
13204;SDS011;6667;52.634;9.226;2023-05-07T12:33:40;6.63;;;5.93;;
13204;SDS011;6667;52.634;9.226;2023-05-07T12:36:11;5.63;;;5.13;;
13204;SDS011;6667;52.634;9.226;2023-05-07T12:38:39;15.23;;;6.47;;
13204;SDS011;6667;52.634;9.226;2023-05-07T12:41:07;5.82;;;5.28;;
13204;SDS011;6667;52.634;9.226;2023-05-07T12:43:35;7.07;;;6.38;;
13204;SDS011;6667;52.634;9.226;2023-05-07T12:46:03;6.95;;;5.28;;
13204;SDS011;6667;52.634;9.226;2023-05-07T12:48:31;5.53;;;4.93;;
13204;SDS011;6667;52.634;9.226;2023-05-07T12:50:59;5.63;;;4.80;;
13204;SDS011;6667;52.634;9.226;2023-05-07T12:53:28;5.53;;;5.03;;
13204;SDS011;6667;52.634;9.226;2023-05-07T12:55:56;5.63;;;4.65;;
13204;SDS011;6667;52.634;9.226;2023-05-07T12:58:25;6.70;;;4.30;;
13204;SDS011;6667;52.634;9.226;2023-05-07T13:00:53;5.07;;;4.57;;
13204;SDS011;6667;52.634;9.226;2023-05-07T13:03:23;5.13;;;4.60;;
13204;SDS011;6667;52.634;9.226;2023-05-07T13:05:51;6.10;;;4.90;;
13204;SDS011;6667;52.634;9.226;2023-05-07T13:08:25;5.85;;;5.13;;
13204;SDS011;6667;52.634;9.226;2023-05-07T13:10:55;7.47;;;5.38;;
13204;SDS011;6667;52.634;9.226;2023-05-07T13:13:22;6.97;;;5.03;;
13204;SDS011;6667;52.634;9.226;2023-05-07T13:15:49;6.05;;;5.45;;
13204;SDS011;6667;52.634;9.226;2023-05-07T13:18:16;5.65;;;5.15;;
13204;SDS011;6667;52.634;9.226;2023-05-07T13:20:43;5.50;;;4.97;;
13204;SDS011;6667;52.634;9.226;2023-05-07T13:23:10;5.28;;;4.82;;
13204;SDS011;6667;52.634;9.226;2023-05-07T13:25:38;5.97;;;5.10;;
13204;SDS011;6667;52.634;9.226;2023-05-07T13:28:05;6.05;;;5.00;;
13204;SDS011;6667;52.634;9.226;2023-05-07T13:30:31;4.80;;;4.38;;
13204;SDS011;6667;52.634;9.226;2023-05-07T13:32:58;6.07;;;4.22;;
13204;SDS011;6667;52.634;9.226;2023-05-07T13:35:25;5.10;;;4.60;;
13204;SDS011;6667;52.634;9.226;2023-05-07T13:37:52;4.45;;;4.05;;
13204;SDS011;6667;52.634;9.226;2023-05-07T13:40:19;4.88;;;4.38;;
13204;SDS011;6667;52.634;9.226;2023-05-07T13:42:48;5.30;;;4.07;;
13204;SDS011;6667;52.634;9.226;2023-05-07T13:45:15;4.43;;;4.03;;
13204;SDS011;6667;52.634;9.226;2023-05-07T13:47:42;4.30;;;3.90;;
13204;SDS011;6667;52.634;9.226;2023-05-07T13:50:09;5.13;;;3.80;;
13204;SDS011;6667;52.634;9.226;2023-05-07T13:52:38;5.30;;;4.28;;
13204;SDS011;6667;52.634;9.226;2023-05-07T13:55:06;4.22;;;3.83;;
13204;SDS011;6667;52.634;9.226;2023-05-07T13:57:33;4.10;;;3.75;;
13204;SDS011;6667;52.634;9.226;2023-05-07T14:00:01;4.38;;;3.97;;
13204;SDS011;6667;52.634;9.226;2023-05-07T14:02:29;4.85;;;3.22;;
13204;SDS011;6667;52.634;9.226;2023-05-07T14:04:56;5.65;;;3.58;;
13204;SDS011;6667;52.634;9.226;2023-05-07T14:07:23;4.22;;;3.78;;
13204;SDS011;6667;52.634;9.226;2023-05-07T14:09:50;4.85;;;3.38;;
13204;SDS011;6667;52.634;9.226;2023-05-07T14:12:16;4.43;;;3.15;;
13204;SDS011;6667;52.634;9.226;2023-05-07T14:14:43;4.57;;;4.18;;
13204;SDS011;6667;52.634;9.226;2023-05-07T14:17:11;3.90;;;3.50;;
13204;SDS011;6667;52.634;9.226;2023-05-07T14:19:38;3.67;;;3.38;;
13204;SDS011;6667;52.634;9.226;2023-05-07T14:22:05;4.38;;;3.38;;
13204;SDS011;6667;52.634;9.226;2023-05-07T14:24:31;5.15;;;3.97;;
13204;SDS011;6667;52.634;9.226;2023-05-07T14:26:58;4.10;;;3.65;;
13204;SDS011;6667;52.634;9.226;2023-05-07T14:29:25;5.43;;;3.95;;
13204;SDS011;6667;52.634;9.226;2023-05-07T14:31:52;3.58;;;3.28;;
13204;SDS011;6667;52.634;9.226;2023-05-07T14:34:20;5.40;;;3.80;;
13204;SDS011;6667;52.634;9.226;2023-05-07T14:36:46;5.78;;;4.35;;
13204;SDS011;6667;52.634;9.226;2023-05-07T14:39:13;4.25;;;3.85;;
13204;SDS011;6667;52.634;9.226;2023-05-07T14:41:40;5.25;;;4.15;;
13204;SDS011;6667;52.634;9.226;2023-05-07T14:44:06;4.60;;;4.00;;
13204;SDS011;6667;52.634;9.226;2023-05-07T14:46:33;4.75;;;4.13;;
13204;SDS011;6667;52.634;9.226;2023-05-07T14:49:02;4.88;;;4.40;;
13204;SDS011;6667;52.634;9.226;2023-05-07T14:51:30;5.43;;;4.93;;
13204;SDS011;6667;52.634;9.226;2023-05-07T14:53:58;5.25;;;4.57;;
13204;SDS011;6667;52.634;9.226;2023-05-07T14:56:26;5.28;;;4.75;;
13204;SDS011;6667;52.634;9.226;2023-05-07T15:02:27;5.70;;;4.72;;
13204;SDS011;6667;52.634;9.226;2023-05-07T15:04:55;5.05;;;4.50;;
13204;SDS011;6667;52.634;9.226;2023-05-07T15:07:34;5.00;;;4.53;;
13204;SDS011;6667;52.634;9.226;2023-05-07T15:10:23;4.90;;;4.40;;
13204;SDS011;6667;52.634;9.226;2023-05-07T15:12:50;5.00;;;4.50;;
13204;SDS011;6667;52.634;9.226;2023-05-07T15:15:26;5.82;;;4.40;;
13204;SDS011;6667;52.634;9.226;2023-05-07T15:17:53;4.60;;;4.20;;
13204;SDS011;6667;52.634;9.226;2023-05-07T15:20:20;4.80;;;4.20;;
13204;SDS011;6667;52.634;9.226;2023-05-07T15:22:51;5.53;;;3.92;;
13204;SDS011;6667;52.634;9.226;2023-05-07T15:25:18;6.38;;;4.28;;
13204;SDS011;6667;52.634;9.226;2023-05-07T15:27:49;4.70;;;4.20;;